Time;durP1;ratioP1;P1;durP2;ratioP2;P2;SDS_P1;SDS_P2;PMS_P1;PMS_P2;Temp;Humidity;BMP_temperature;BMP_pressure;BME280_temperature;BME280_humidity;BME280_pressure;Samples;Min_cycle;Max_cycle;Signal;HPM_P1;HPM_P2
2021/07/15 00:00:10;;;;;;;1.20;1.00;;;17.10;98.00;;;;;;5115672;28;20887;-64
2021/07/15 00:02:37;;;;;;;1.20;1.10;;;17.30;98.00;;;;;;5115065;28;21175;-63
2021/07/15 00:05:11;;;;;;;1.20;1.10;;;17.20;98.00;;;;;;5115477;28;20455;-63
2021/07/15 00:07:39;;;;;;;1.20;1.00;;;17.10;98.00;;;;;;5115321;28;20465;-63
2021/07/15 00:10:11;;;;;;;1.37;1.10;;;17.10;98.00;;;;;;5115410;28;20567;-63
2021/07/15 00:12:41;;;;;;;1.20;1.10;;;17.10;98.00;;;;;;5113464;28;20859;-63
2021/07/15 00:15:09;;;;;;;1.20;1.10;;;17.10;98.00;;;;;;5115256;28;20450;-63
2021/07/15 00:17:36;;;;;;;1.40;1.17;;;17.10;98.00;;;;;;5111164;28;20497;-64
2021/07/15 00:20:13;;;;;;;1.20;1.00;;;17.10;98.00;;;;;;5115314;28;20523;-63
2021/07/15 00:22:42;;;;;;;1.20;1.10;;;17.20;98.00;;;;;;5097725;28;20527;-64
2021/07/15 00:25:11;;;;;;;1.23;1.23;;;17.20;98.00;;;;;;5115008;28;20567;-63
2021/07/15 00:27:39;;;;;;;1.20;1.10;;;17.20;98.00;;;;;;5115079;27;20486;-63
2021/07/15 00:30:08;;;;;;;1.20;1.20;;;17.20;98.00;;;;;;5115104;28;20466;-63
2021/07/15 00:32:36;;;;;;;1.20;1.10;;;17.20;98.00;;;;;;5114418;28;20925;-63
2021/07/15 00:35:03;;;;;;;1.20;1.00;;;17.10;98.00;;;;;;5114894;28;20490;-64
2021/07/15 00:37:30;;;;;;;1.20;1.00;;;17.20;98.00;;;;;;5114825;28;20459;-63
2021/07/15 00:39:58;;;;;;;1.40;1.10;;;17.20;98.00;;;;;;5114960;28;20455;-64
2021/07/15 00:42:26;;;;;;;1.43;1.10;;;17.20;98.00;;;;;;5114829;28;20451;-63
2021/07/15 00:44:53;;;;;;;1.20;1.10;;;17.20;98.00;;;;;;5096640;28;20508;-63
2021/07/15 00:47:20;;;;;;;1.20;1.10;;;17.20;98.00;;;;;;5114666;28;20531;-63
2021/07/15 00:49:47;;;;;;;1.20;1.10;;;17.00;98.00;;;;;;5113412;28;20451;-63
2021/07/15 00:52:15;;;;;;;1.20;1.00;;;16.90;98.00;;;;;;5114272;28;20459;-62
2021/07/15 00:54:43;;;;;;;1.20;1.00;;;16.90;98.00;;;;;;5114264;28;20525;-64
2021/07/15 00:57:11;;;;;;;1.40;1.30;;;16.80;98.00;;;;;;5114138;28;20529;-63
2021/07/15 00:59:39;;;;;;;1.20;1.00;;;16.90;98.00;;;;;;5114141;28;20509;-63
2021/07/15 01:02:06;;;;;;;1.20;1.10;;;16.90;98.00;;;;;;5114184;28;20505;-63
2021/07/15 01:04:33;;;;;;;1.20;1.10;;;16.90;98.00;;;;;;5114030;28;20519;-63
2021/07/15 01:07:00;;;;;;;1.20;1.00;;;16.90;98.00;;;;;;5113977;28;20940;-63
2021/07/15 01:09:29;;;;;;;1.50;1.20;;;16.90;98.00;;;;;;5114029;28;20520;-63
2021/07/15 01:12:07;;;;;;;1.20;1.10;;;16.90;98.00;;;;;;5113921;28;20549;-65
2021/07/15 01:14:43;;;;;;;1.20;1.10;;;17.00;98.00;;;;;;5112813;28;20519;-63
2021/07/15 01:17:18;;;;;;;1.20;1.00;;;17.00;98.00;;;;;;5113805;28;20575;-64
2021/07/15 01:20:23;;;;;;;1.20;1.07;;;17.20;98.00;;;;;;5113952;28;20483;-64
2021/07/15 01:22:58;;;;;;;1.40;1.13;;;17.20;98.00;;;;;;5113983;28;20490;-64
2021/07/15 01:25:54;;;;;;;1.20;0.90;;;17.20;98.00;;;;;;5113845;28;20486;-63
2021/07/15 01:28:31;;;;;;;1.20;1.00;;;17.20;98.00;;;;;;5113786;28;20490;-63
2021/07/15 01:31:03;;;;;;;1.40;1.30;;;17.20;98.00;;;;;;5113554;28;20486;-63
2021/07/15 01:33:34;;;;;;;1.20;1.10;;;17.20;98.00;;;;;;5112448;28;20454;-63
2021/07/15 01:36:04;;;;;;;1.20;1.00;;;17.30;98.00;;;;;;5113535;28;20483;-63
2021/07/15 01:38:36;;;;;;;1.20;1.10;;;17.30;98.00;;;;;;5113644;28;20443;-64
2021/07/15 01:41:08;;;;;;;1.20;1.00;;;17.20;98.00;;;;;;5112335;28;20475;-64
2021/07/15 01:43:37;;;;;;;1.20;1.00;;;17.20;98.00;;;;;;5112870;28;20508;-62
2021/07/15 01:46:08;;;;;;;1.20;1.00;;;17.20;98.00;;;;;;5113405;28;20522;-63
2021/07/15 01:48:37;;;;;;;1.20;1.10;;;17.30;98.00;;;;;;5113436;28;20503;-64
2021/07/15 01:51:05;;;;;;;1.20;1.10;;;17.20;98.00;;;;;;5113240;28;20497;-63
2021/07/15 01:53:32;;;;;;;1.43;1.00;;;17.20;98.00;;;;;;5113424;28;20842;-64
2021/07/15 01:56:01;;;;;;;1.20;1.00;;;17.20;98.00;;;;;;5113237;28;20518;-63
2021/07/15 01:58:31;;;;;;;1.20;1.00;;;17.20;98.00;;;;;;5113254;28;20455;-62
2021/07/15 02:01:00;;;;;;;1.20;1.10;;;17.30;98.00;;;;;;5113202;28;20498;-63
2021/07/15 02:03:30;;;;;;;1.30;1.27;;;17.50;98.00;;;;;;5113530;28;20933;-63
2021/07/15 02:05:58;;;;;;;1.20;1.00;;;17.40;98.00;;;;;;5113020;28;20488;-62
2021/07/15 02:08:25;;;;;;;1.20;1.10;;;17.40;98.00;;;;;;5111890;28;20884;-63
2021/07/15 02:10:54;;;;;;;1.20;1.00;;;17.40;98.00;;;;;;5094761;28;20483;-62
2021/07/15 02:13:21;;;;;;;1.33;1.10;;;17.40;98.00;;;;;;5112938;28;20519;-65
2021/07/15 02:15:51;;;;;;;1.20;1.10;;;17.40;98.00;;;;;;5112717;28;20519;-65
2021/07/15 02:18:22;;;;;;;1.20;1.00;;;17.40;98.00;;;;;;5112695;28;20507;-63
2021/07/15 02:20:54;;;;;;;1.20;1.00;;;17.30;98.00;;;;;;5112486;28;20490;-64
2021/07/15 02:23:23;;;;;;;1.20;1.00;;;17.30;98.00;;;;;;5112633;28;20474;-63
2021/07/15 02:25:53;;;;;;;1.30;1.10;;;17.30;98.00;;;;;;5112522;28;20547;-63
2021/07/15 02:28:22;;;;;;;1.20;1.00;;;17.30;98.00;;;;;;5112524;28;20458;-63
2021/07/15 02:30:53;;;;;;;1.20;1.00;;;17.30;98.00;;;;;;5112569;28;20487;-64
2021/07/15 02:33:26;;;;;;;1.20;1.00;;;17.40;98.00;;;;;;5111188;28;20470;-63
2021/07/15 02:35:58;;;;;;;1.20;1.00;;;17.40;98.00;;;;;;5112261;28;20486;-64
2021/07/15 02:38:26;;;;;;;1.20;1.10;;;17.30;98.00;;;;;;5112540;28;20447;-63
2021/07/15 02:40:53;;;;;;;1.30;1.10;;;17.40;98.00;;;;;;5111277;28;20516;-64
2021/07/15 02:43:21;;;;;;;1.20;1.10;;;17.40;98.00;;;;;;5112298;28;20494;-65
2021/07/15 02:45:48;;;;;;;1.20;1.10;;;17.30;98.00;;;;;;5112374;28;20511;-64
2021/07/15 02:48:17;;;;;;;1.20;1.00;;;17.30;98.00;;;;;;5112507;28;20508;-64
2021/07/15 02:50:44;;;;;;;1.20;1.10;;;17.30;98.00;;;;;;5112390;28;20454;-63
2021/07/15 02:53:14;;;;;;;1.20;1.10;;;17.40;98.00;;;;;;5110645;28;20964;-63
2021/07/15 02:55:51;;;;;;;1.20;1.00;;;17.30;98.00;;;;;;5110936;28;20455;-63
2021/07/15 02:58:24;;;;;;;1.20;1.00;;;17.30;98.00;;;;;;5112298;28;20463;-63
2021/07/15 03:00:54;;;;;;;1.20;1.07;;;17.30;98.00;;;;;;5110983;28;20487;-64
2021/07/15 03:03:31;;;;;;;1.20;1.10;;;17.30;98.00;;;;;;5112135;28;20786;-63
2021/07/15 03:06:02;;;;;;;1.20;1.10;;;17.30;98.00;;;;;;5112252;28;20483;-64
2021/07/15 03:08:33;;;;;;;1.20;1.00;;;17.30;98.00;;;;;;5112147;28;20949;-63
2021/07/15 03:11:04;;;;;;;1.20;1.00;;;17.30;98.00;;;;;;5112106;28;20459;-63
2021/07/15 03:13:33;;;;;;;1.20;1.00;;;17.40;98.00;;;;;;5112075;28;20457;-63
2021/07/15 03:16:01;;;;;;;1.20;1.03;;;17.30;98.00;;;;;;5112121;28;20510;-63
2021/07/15 03:18:30;;;;;;;1.20;1.00;;;17.30;98.00;;;;;;5112084;28;20493;-65
2021/07/15 03:21:04;;;;;;;1.20;1.00;;;17.40;98.00;;;;;;5112282;28;20845;-63
2021/07/15 03:23:34;;;;;;;1.27;1.03;;;17.40;98.00;;;;;;5110916;28;20467;-63
2021/07/15 03:26:04;;;;;;;1.20;1.10;;;17.40;98.00;;;;;;5111825;28;20550;-64
2021/07/15 03:28:36;;;;;;;1.20;1.00;;;17.40;98.00;;;;;;5111875;28;20519;-63
2021/07/15 03:31:06;;;;;;;1.20;1.10;;;17.30;98.00;;;;;;5111706;28;20459;-64
2021/07/15 03:33:38;;;;;;;1.20;1.00;;;17.20;98.00;;;;;;5111775;28;20491;-63
2021/07/15 03:36:07;;;;;;;1.20;1.10;;;17.10;98.00;;;;;;5111079;28;20487;-63
2021/07/15 03:38:45;;;;;;;1.20;1.00;;;17.10;98.00;;;;;;5111169;28;20478;-62
2021/07/15 03:41:14;;;;;;;1.20;1.00;;;17.20;98.00;;;;;;5110986;28;20486;-64
2021/07/15 03:43:44;;;;;;;1.20;1.10;;;17.10;98.00;;;;;;5110984;28;20459;-64
2021/07/15 03:46:12;;;;;;;1.20;1.00;;;17.00;98.00;;;;;;5111487;28;20528;-63
2021/07/15 03:48:40;;;;;;;1.20;0.90;;;16.80;98.00;;;;;;5111711;28;20454;-63
2021/07/15 03:51:10;;;;;;;1.20;1.00;;;16.70;98.00;;;;;;5111596;28;20451;-64
2021/07/15 03:53:40;;;;;;;1.20;1.00;;;16.60;98.00;;;;;;5111709;28;20447;-62
2021/07/15 03:56:11;;;;;;;1.20;1.10;;;16.60;98.00;;;;;;5111511;28;20451;-63
2021/07/15 03:58:41;;;;;;;1.20;1.00;;;16.60;98.00;;;;;;5110518;28;21006;-64
2021/07/15 04:01:10;;;;;;;1.20;1.00;;;16.50;98.00;;;;;;5111624;28;20517;-63
2021/07/15 04:03:38;;;;;;;1.20;1.07;;;16.50;98.00;;;;;;5111284;28;20451;-63
2021/07/15 04:06:07;;;;;;;1.20;1.10;;;16.60;98.00;;;;;;5111423;28;20483;-64
2021/07/15 04:08:39;;;;;;;1.20;1.00;;;16.60;98.00;;;;;;5097455;28;20504;-63
2021/07/15 04:11:08;;;;;;;1.20;1.00;;;16.70;98.00;;;;;;5115282;28;20469;-64
2021/07/15 04:13:36;;;;;;;1.20;1.10;;;16.70;98.00;;;;;;5113959;28;20950;-63
2021/07/15 04:16:23;;;;;;;1.20;1.03;;;16.90;98.00;;;;;;5114883;28;20489;-64
2021/07/15 04:18:54;;;;;;;1.20;1.10;;;17.00;98.00;;;;;;5114046;28;20498;-64
2021/07/15 04:21:21;;;;;;;1.20;1.00;;;17.10;98.00;;;;;;5114930;28;20454;-63
2021/07/15 04:23:52;;;;;;;1.20;1.00;;;17.20;98.00;;;;;;5115000;28;20458;-64
2021/07/15 04:26:20;;;;;;;1.20;1.03;;;17.20;98.00;;;;;;5115011;28;20459;-62
2021/07/15 04:28:49;;;;;;;1.20;1.00;;;17.30;98.00;;;;;;5114804;28;20439;-63
2021/07/15 04:32:06;;;;;;;1.20;1.00;;;17.30;98.00;;;;;;5114762;28;20447;-63
2021/07/15 04:34:36;;;;;;;1.20;1.00;;;17.40;98.00;;;;;;5051773;28;20532;-63
2021/07/15 04:37:04;;;;;;;1.20;1.00;;;17.30;98.00;;;;;;5109486;28;21073;-64
2021/07/15 04:39:34;;;;;;;1.20;1.00;;;17.30;98.00;;;;;;5114919;28;20447;-64
2021/07/15 04:42:04;;;;;;;1.20;1.10;;;17.20;98.00;;;;;;5114478;28;21041;-64
2021/07/15 04:44:32;;;;;;;1.20;1.10;;;17.30;98.00;;;;;;5115114;28;20556;-64
2021/07/15 04:47:01;;;;;;;1.20;1.00;;;17.30;98.00;;;;;;5113483;28;20871;-64
2021/07/15 04:49:30;;;;;;;1.20;1.00;;;17.50;98.00;;;;;;5113773;28;20505;-63
2021/07/15 04:51:57;;;;;;;1.20;1.00;;;17.40;98.00;;;;;;5114159;28;20455;-63
2021/07/15 04:54:27;;;;;;;1.20;1.00;;;17.30;98.00;;;;;;5114194;28;20455;-63
2021/07/15 04:56:56;;;;;;;1.20;1.00;;;17.30;98.00;;;;;;5113979;28;20471;-63
2021/07/15 04:59:30;;;;;;;1.20;1.10;;;17.30;98.00;;;;;;5114536;28;20451;-64
2021/07/15 05:01:57;;;;;;;1.20;1.10;;;17.30;98.00;;;;;;5112903;28;20533;-64
2021/07/15 05:04:26;;;;;;;1.20;1.00;;;17.40;98.00;;;;;;5114231;28;20478;-64
2021/07/15 05:06:54;;;;;;;1.20;1.00;;;17.50;98.00;;;;;;5114272;27;20504;-65
2021/07/15 05:09:21;;;;;;;1.20;1.00;;;17.50;98.00;;;;;;5114077;28;20471;-63
2021/07/15 05:11:48;;;;;;;1.20;1.00;;;17.50;98.00;;;;;;5113986;28;20941;-63
2021/07/15 05:14:16;;;;;;;1.20;1.00;;;17.60;98.00;;;;;;5113967;28;20491;-63
2021/07/15 05:16:43;;;;;;;1.20;1.10;;;17.50;98.00;;;;;;5113877;28;20548;-63
2021/07/15 05:19:10;;;;;;;1.20;1.10;;;17.40;98.00;;;;;;5112708;28;21030;-64
2021/07/15 05:21:40;;;;;;;1.20;1.00;;;17.60;98.00;;;;;;5113857;28;20950;-63
2021/07/15 05:24:08;;;;;;;1.20;1.00;;;17.70;98.00;;;;;;5113616;28;20463;-62
2021/07/15 05:26:36;;;;;;;1.20;1.10;;;17.80;98.00;;;;;;5112532;28;20553;-63
2021/07/15 05:29:03;;;;;;;1.20;1.00;;;17.80;98.00;;;;;;5112471;28;20960;-64
2021/07/15 05:31:35;;;;;;;1.73;1.20;;;17.70;98.00;;;;;;5113686;28;20463;-63
2021/07/15 05:34:02;;;;;;;1.20;1.10;;;17.80;98.00;;;;;;5113585;28;20524;-63
2021/07/15 05:36:31;;;;;;;1.20;1.10;;;17.90;98.00;;;;;;5113650;28;20614;-63
2021/07/15 05:38:58;;;;;;;1.20;1.10;;;17.90;98.00;;;;;;5113469;28;20482;-63
2021/07/15 05:41:25;;;;;;;1.30;1.27;;;17.90;98.00;;;;;;5113554;28;20510;-63
2021/07/15 05:43:55;;;;;;;1.20;1.10;;;17.90;98.00;;;;;;5113472;28;20479;-64
2021/07/15 05:46:22;;;;;;;1.20;1.10;;;17.80;98.00;;;;;;5113438;28;20482;-64
2021/07/15 05:48:50;;;;;;;1.20;1.07;;;17.80;98.00;;;;;;5112162;28;20487;-63
2021/07/15 05:51:17;;;;;;;1.20;1.00;;;17.80;98.00;;;;;;5113283;28;20463;-65
2021/07/15 05:53:44;;;;;;;1.20;1.10;;;17.70;98.00;;;;;;5113271;28;20551;-64
2021/07/15 05:56:12;;;;;;;1.20;1.07;;;17.70;98.00;;;;;;5113376;28;20490;-63
2021/07/15 05:58:41;;;;;;;1.20;1.10;;;17.70;98.00;;;;;;5113358;28;20479;-63
2021/07/15 06:01:08;;;;;;;1.20;1.10;;;17.70;98.00;;;;;;5111645;28;20474;-64
2021/07/15 06:03:35;;;;;;;1.20;1.00;;;17.80;98.00;;;;;;5112332;28;20898;-64
2021/07/15 06:06:04;;;;;;;1.20;1.00;;;17.90;98.00;;;;;;5113333;28;20960;-63
2021/07/15 06:08:32;;;;;;;1.20;1.10;;;18.00;98.00;;;;;;5113371;28;20918;-63
2021/07/15 06:11:01;;;;;;;1.20;1.10;;;18.00;98.00;;;;;;5113001;28;20487;-64
2021/07/15 06:13:28;;;;;;;1.20;1.10;;;18.10;98.00;;;;;;5112921;28;21014;-63
2021/07/15 06:15:55;;;;;;;1.20;1.03;;;18.10;98.00;;;;;;5112771;28;20528;-64
2021/07/15 06:18:22;;;;;;;1.20;1.10;;;18.00;98.00;;;;;;5112890;28;20573;-64
2021/07/15 06:20:50;;;;;;;1.20;1.10;;;18.10;98.00;;;;;;5112671;28;20942;-63
2021/07/15 06:23:18;;;;;;;1.20;1.00;;;18.20;98.00;;;;;;5112568;28;20502;-63
2021/07/15 06:25:45;;;;;;;1.20;1.10;;;18.20;98.00;;;;;;5112655;28;20459;-63
2021/07/15 06:28:12;;;;;;;1.20;1.10;;;18.20;98.00;;;;;;5112576;28;20447;-64
2021/07/15 06:30:41;;;;;;;1.20;1.00;;;18.20;98.00;;;;;;5110905;28;20591;-64
2021/07/15 06:33:08;;;;;;;1.20;1.00;;;18.00;98.00;;;;;;5111070;28;20463;-66
2021/07/15 06:35:40;;;;;;;1.20;1.00;;;18.00;98.00;;;;;;5112433;28;20883;-65
2021/07/15 06:38:08;;;;;;;1.20;1.10;;;17.90;98.00;;;;;;5112291;28;20515;-64
2021/07/15 06:40:36;;;;;;;1.20;1.00;;;18.00;98.00;;;;;;5112353;28;20873;-63
2021/07/15 06:43:04;;;;;;;1.20;1.00;;;18.00;98.00;;;;;;5112411;28;20796;-65
2021/07/15 06:45:31;;;;;;;1.20;1.10;;;18.10;98.00;;;;;;5112213;28;20482;-65
2021/07/15 06:47:58;;;;;;;1.20;1.00;;;18.10;98.00;;;;;;5112272;28;20490;-65
2021/07/15 06:50:24;;;;;;;1.20;1.10;;;18.20;98.00;;;;;;5112273;28;20447;-64
2021/07/15 06:52:52;;;;;;;1.20;1.00;;;18.30;98.00;;;;;;5112190;28;20455;-65
2021/07/15 06:55:19;;;;;;;1.20;1.00;;;18.40;98.00;;;;;;5111026;28;21062;-64
2021/07/15 06:57:48;;;;;;;1.20;1.10;;;18.40;98.00;;;;;;5112009;28;20515;-64
2021/07/15 07:00:17;;;;;;;1.20;1.10;;;18.50;98.00;;;;;;5112095;28;20458;-65
2021/07/15 07:02:46;;;;;;;1.20;1.10;;;18.60;98.00;;;;;;5112033;28;20459;-63
2021/07/15 07:05:14;;;;;;;1.20;1.00;;;18.70;98.00;;;;;;5094604;28;20994;-64
2021/07/15 07:07:42;;;;;;;1.20;1.10;;;18.80;98.00;;;;;;5111981;28;20938;-64
2021/07/15 07:10:12;;;;;;;1.20;1.00;;;19.00;98.00;;;;;;5112212;28;21002;-64
2021/07/15 07:12:40;;;;;;;1.20;1.00;;;18.90;98.00;;;;;;5111962;28;20520;-64
2021/07/15 07:15:11;;;;;;;1.20;1.00;;;18.80;98.00;;;;;;5112417;28;20929;-64
2021/07/15 07:17:39;;;;;;;1.20;1.00;;;18.80;98.00;;;;;;5111965;28;20483;-64
2021/07/15 07:20:09;;;;;;;1.20;1.07;;;18.90;98.00;;;;;;5112300;28;20451;-65
2021/07/15 07:22:36;;;;;;;1.20;1.10;;;19.00;98.00;;;;;;5111922;28;20550;-64
2021/07/15 07:25:03;;;;;;;1.40;1.17;;;19.00;98.00;;;;;;5112187;28;20555;-64
2021/07/15 07:27:31;;;;;;;1.20;1.10;;;18.80;98.00;;;;;;5108907;28;20487;-66
2021/07/15 07:29:58;;;;;;;1.20;1.10;;;18.80;98.00;;;;;;5098297;28;20459;-63
2021/07/15 07:32:27;;;;;;;1.20;1.10;;;18.90;98.00;;;;;;5101413;28;20509;-63
2021/07/15 07:34:54;;;;;;;1.60;1.20;;;19.10;98.00;;;;;;5088700;28;20517;-63
2021/07/15 07:37:25;;;;;;;1.20;1.10;;;19.30;98.00;;;;;;5095697;28;21008;-65
2021/07/15 07:39:52;;;;;;;1.20;1.10;;;19.60;98.00;;;;;;5101374;28;20448;-64
2021/07/15 07:42:20;;;;;;;1.30;1.20;;;19.90;98.00;;;;;;5092390;28;21019;-64
2021/07/15 07:44:47;;;;;;;1.20;1.10;;;20.20;98.00;;;;;;5098483;28;20554;-63
2021/07/15 07:47:14;;;;;;;1.20;1.07;;;20.40;98.00;;;;;;5096785;28;20490;-64
2021/07/15 07:49:42;;;;;;;1.20;1.00;;;20.50;98.00;;;;;;5092188;28;21296;-66
2021/07/15 07:52:09;;;;;;;1.20;1.00;;;20.40;98.00;;;;;;5093762;28;20479;-64
2021/07/15 07:54:37;;;;;;;1.20;1.00;;;20.50;98.00;;;;;;5097039;28;20507;-67
2021/07/15 07:57:05;;;;;;;1.20;1.00;;;20.60;98.00;;;;;;5103810;28;20946;-67
2021/07/15 07:59:34;;;;;;;1.20;1.00;;;20.40;98.00;;;;;;5098666;28;21213;-67
2021/07/15 08:02:01;;;;;;;1.20;1.10;;;20.20;98.00;;;;;;5074244;28;20451;-68
2021/07/15 08:04:38;;;;;;;1.20;1.10;;;20.10;98.00;;;;;;5105006;28;20950;-67
2021/07/15 08:07:09;;;;;;;1.20;1.10;;;19.90;98.00;;;;;;5099204;28;20550;-68
2021/07/15 08:09:42;;;;;;;1.37;1.23;;;19.80;98.00;;;;;;5102494;28;20541;-67
2021/07/15 08:12:11;;;;;;;2.27;1.20;;;19.40;98.00;;;;;;5095443;28;20958;-66
2021/07/15 08:14:39;;;;;;;1.20;1.00;;;19.40;98.00;;;;;;5093126;28;20450;-67
2021/07/15 08:17:06;;;;;;;1.20;1.13;;;19.40;98.00;;;;;;5101346;28;20532;-67
2021/07/15 08:19:33;;;;;;;1.40;1.20;;;19.40;98.00;;;;;;5102755;28;21007;-67
2021/07/15 08:22:02;;;;;;;1.20;1.10;;;19.50;98.00;;;;;;5102684;28;20509;-67
2021/07/15 08:24:31;;;;;;;1.20;1.00;;;19.50;98.00;;;;;;5093137;28;20513;-67
2021/07/15 08:26:58;;;;;;;1.20;1.00;;;19.50;98.00;;;;;;5101395;28;20958;-67
2021/07/15 08:29:26;;;;;;;1.30;1.10;;;19.60;98.00;;;;;;5109461;28;20459;-66
2021/07/15 08:31:53;;;;;;;1.20;1.10;;;19.60;98.00;;;;;;5102475;28;20552;-66
2021/07/15 08:34:21;;;;;;;1.20;1.10;;;19.50;98.00;;;;;;5092975;28;20451;-64
2021/07/15 08:36:48;;;;;;;1.30;1.17;;;19.60;98.00;;;;;;5099776;28;20455;-66
2021/07/15 08:39:15;;;;;;;1.20;1.10;;;19.60;98.00;;;;;;5101564;28;20494;-66
2021/07/15 08:41:46;;;;;;;1.20;1.10;;;19.60;98.00;;;;;;5109233;28;20474;-66
2021/07/15 08:44:16;;;;;;;1.20;1.10;;;19.60;98.00;;;;;;5100648;28;20455;-67
2021/07/15 08:46:47;;;;;;;1.20;1.10;;;19.60;98.00;;;;;;5093200;28;20509;-66
2021/07/15 08:49:21;;;;;;;1.20;1.10;;;19.60;98.00;;;;;;5091598;28;20460;-69
2021/07/15 08:51:49;;;;;;;1.20;1.10;;;19.70;98.00;;;;;;5090712;28;20456;-68
2021/07/15 08:54:17;;;;;;;1.50;1.30;;;19.80;98.00;;;;;;5091551;28;20460;-69
2021/07/15 08:56:47;;;;;;;1.20;1.10;;;19.80;98.00;;;;;;5100960;28;20459;-68
2021/07/15 08:59:18;;;;;;;1.20;1.03;;;19.90;98.00;;;;;;5100985;28;20496;-68
2021/07/15 09:01:46;;;;;;;1.20;1.10;;;19.90;98.00;;;;;;5101212;28;20486;-67
2021/07/15 09:04:13;;;;;;;1.20;1.10;;;19.90;98.00;;;;;;5091841;28;20452;-66
2021/07/15 09:06:41;;;;;;;1.20;1.20;;;19.90;98.00;;;;;;5092225;28;20456;-68
2021/07/15 09:09:11;;;;;;;1.20;1.10;;;19.80;98.00;;;;;;5101200;28;20817;-69
2021/07/15 09:11:38;;;;;;;1.20;1.10;;;19.80;98.00;;;;;;5092291;28;21011;-69
2021/07/15 09:14:21;;;;;;;1.20;1.10;;;19.80;98.00;;;;;;5108155;28;20498;-66
2021/07/15 09:16:49;;;;;;;1.30;1.17;;;19.80;98.00;;;;;;5094075;28;20568;-68
2021/07/15 09:19:18;;;;;;;1.20;1.10;;;19.80;98.00;;;;;;5090204;28;20480;-67
2021/07/15 09:21:45;;;;;;;1.20;1.00;;;19.80;98.00;;;;;;5099480;28;20876;-69
2021/07/15 09:24:30;;;;;;;1.20;1.20;;;19.90;98.00;;;;;;5091956;28;20962;-68
2021/07/15 09:26:58;;;;;;;1.20;1.10;;;19.90;98.00;;;;;;5101334;28;20487;-68
2021/07/15 09:29:26;;;;;;;1.40;1.20;;;19.80;98.00;;;;;;5100903;28;20517;-67
2021/07/15 09:31:56;;;;;;;1.20;1.10;;;19.90;98.00;;;;;;5093658;28;20523;-67
2021/07/15 09:34:24;;;;;;;1.20;1.10;;;20.10;98.00;;;;;;5105308;28;20455;-68
2021/07/15 09:36:53;;;;;;;1.20;1.10;;;20.20;98.00;;;;;;5103441;28;20491;-67
2021/07/15 09:39:21;;;;;;;1.20;1.00;;;20.30;98.00;;;;;;5106235;28;20492;-67
2021/07/15 09:42:07;;;;;;;1.20;1.10;;;20.50;98.00;;;;;;5100129;28;20447;-69
2021/07/15 09:44:38;;;;;;;1.50;1.20;;;20.70;98.00;;;;;;5098128;28;20448;-69
2021/07/15 09:47:07;;;;;;;1.20;1.00;;;20.70;98.00;;;;;;5108491;28;20531;-67
2021/07/15 09:49:35;;;;;;;1.20;1.03;;;20.80;98.00;;;;;;5093566;28;21028;-68
2021/07/15 09:52:03;;;;;;;1.20;1.10;;;21.00;98.00;;;;;;5098818;28;20447;-69
2021/07/15 09:54:32;;;;;;;1.20;1.00;;;21.30;98.00;;;;;;5101830;28;20456;-67
2021/07/15 09:56:59;;;;;;;1.20;1.20;;;21.50;98.00;;;;;;5104814;28;20524;-67
2021/07/15 09:59:26;;;;;;;1.20;1.10;;;21.60;98.00;;;;;;5093762;28;20564;-67
2021/07/15 10:01:55;;;;;;;1.20;1.03;;;21.60;98.00;;;;;;5091174;28;20456;-68
2021/07/15 10:04:23;;;;;;;1.30;1.00;;;21.60;98.00;;;;;;5105380;28;20486;-68
2021/07/15 10:06:53;;;;;;;1.20;1.00;;;21.40;98.00;;;;;;5108360;28;20455;-69
2021/07/15 10:09:23;;;;;;;1.20;1.07;;;21.40;98.00;;;;;;5105180;28;20461;-69
2021/07/15 10:11:54;;;;;;;1.20;1.20;;;21.50;98.00;;;;;;5099060;28;20487;-66
2021/07/15 10:14:32;;;;;;;1.20;1.00;;;21.50;98.00;;;;;;5091017;28;20470;-68
2021/07/15 10:17:00;;;;;;;1.30;1.10;;;21.50;98.00;;;;;;5099449;28;20451;-68
2021/07/15 10:19:27;;;;;;;1.20;1.20;;;21.70;98.00;;;;;;5107423;28;21009;-68
2021/07/15 10:21:59;;;;;;;1.20;1.10;;;22.00;98.00;;;;;;5099442;28;21095;-68
2021/07/15 10:24:27;;;;;;;1.20;1.10;;;22.10;98.00;;;;;;5098757;28;20483;-68
2021/07/15 10:26:56;;;;;;;1.40;1.30;;;22.20;98.00;;;;;;5107866;28;21007;-67
2021/07/15 10:29:23;;;;;;;1.30;1.10;;;22.20;98.00;;;;;;5099335;28;20460;-69
2021/07/15 10:31:51;;;;;;;1.20;1.10;;;22.10;98.00;;;;;;5099888;28;20958;-67
2021/07/15 10:34:21;;;;;;;1.20;1.10;;;22.30;98.00;;;;;;5099824;28;20514;-70
2021/07/15 10:36:50;;;;;;;1.20;1.00;;;22.20;98.00;;;;;;5089506;28;20962;-69
2021/07/15 10:39:18;;;;;;;1.20;1.10;;;22.10;98.00;;;;;;5089925;28;20496;-67
2021/07/15 10:41:50;;;;;;;1.20;1.10;;;22.00;98.00;;;;;;5098018;28;20439;-69
2021/07/15 10:44:18;;;;;;;1.27;1.17;;;22.10;98.00;;;;;;5097863;28;20455;-69
2021/07/15 10:46:46;;;;;;;1.30;1.10;;;22.20;98.00;;;;;;5089943;28;20499;-68
2021/07/15 10:49:14;;;;;;;1.27;1.13;;;22.40;98.00;;;;;;5096805;28;20885;-69
2021/07/15 10:51:46;;;;;;;1.20;1.07;;;22.50;98.00;;;;;;5098247;28;20459;-69
2021/07/15 10:54:14;;;;;;;1.20;1.03;;;22.70;98.00;;;;;;5081330;28;20511;-69
2021/07/15 10:56:45;;;;;;;1.20;1.00;;;22.80;98.00;;;;;;5098030;28;20460;-68
2021/07/15 10:59:24;;;;;;;1.20;1.10;;;22.70;98.00;;;;;;5081606;28;20502;-71
2021/07/15 11:01:51;;;;;;;1.20;1.00;;;22.80;98.00;;;;;;5091934;28;20463;-68
2021/07/15 11:04:21;;;;;;;1.77;1.20;;;22.90;98.00;;;;;;5097573;28;20524;-67
2021/07/15 11:06:51;;;;;;;1.30;1.20;;;23.10;98.00;;;;;;5099027;28;20463;-67
2021/07/15 11:09:29;;;;;;;1.20;1.10;;;23.10;98.00;;;;;;5098880;28;20455;-68
2021/07/15 11:11:57;;;;;;;1.30;1.13;;;22.90;98.00;;;;;;5099531;28;20463;-67
2021/07/15 11:14:38;;;;;;;1.20;1.20;;;23.00;98.00;;;;;;5097352;28;20452;-67
2021/07/15 11:17:31;;;;;;;1.20;1.10;;;23.20;98.00;;;;;;5087982;28;20804;-68
2021/07/15 11:20:00;;;;;;;1.30;1.10;;;23.20;98.00;;;;;;5101270;28;20569;-65
2021/07/15 11:22:49;;;;;;;1.50;1.30;;;23.20;98.00;;;;;;5096113;28;20499;-66
2021/07/15 11:25:18;;;;;;;1.20;1.10;;;22.90;98.00;;;;;;5094272;28;20497;-65
2021/07/15 11:27:54;;;;;;;1.30;1.20;;;22.90;98.00;;;;;;5102605;28;20452;-67
2021/07/15 11:30:44;;;;;;;1.20;1.10;;;23.00;98.00;;;;;;5095282;28;20458;-65
2021/07/15 11:33:32;;;;;;;1.40;1.20;;;23.20;98.00;;;;;;5099736;28;20500;-65
2021/07/15 11:36:04;;;;;;;1.20;1.20;;;23.30;98.00;;;;;;5102370;28;20973;-65
2021/07/15 11:38:34;;;;;;;1.30;1.20;;;23.20;97.40;;;;;;5073633;28;20472;-66
2021/07/15 11:41:03;;;;;;;1.40;1.30;;;23.30;98.00;;;;;;5102576;28;20793;-66
2021/07/15 11:43:33;;;;;;;1.20;1.10;;;23.20;98.00;;;;;;5102751;28;20512;-66
2021/07/15 11:46:15;;;;;;;1.20;1.03;;;23.30;98.00;;;;;;5094147;28;20535;-64
2021/07/15 11:48:53;;;;;;;1.20;1.10;;;23.30;98.00;;;;;;5086735;28;20518;-65
2021/07/15 11:51:38;;;;;;;1.20;1.20;;;23.20;98.00;;;;;;5107330;28;20508;-65
2021/07/15 11:54:44;;;;;;;1.20;1.10;;;23.10;98.00;;;;;;5107620;28;20466;-64
2021/07/15 11:57:30;;;;;;;1.20;1.10;;;22.90;98.00;;;;;;5109083;28;20455;-64
2021/07/15 12:00:12;;;;;;;1.20;1.10;;;22.90;98.00;;;;;;5091578;28;20491;-67
2021/07/15 12:02:40;;;;;;;1.20;1.10;;;22.90;98.00;;;;;;5102749;28;20542;-66
2021/07/15 12:05:21;;;;;;;1.20;1.20;;;22.90;97.90;;;;;;5105576;28;20482;-65
2021/07/15 12:07:52;;;;;;;1.20;1.03;;;22.80;98.00;;;;;;5101446;28;20466;-66
2021/07/15 12:10:27;;;;;;;1.80;1.30;;;22.80;98.00;;;;;;5095644;28;20465;-68
2021/07/15 12:12:58;;;;;;;1.20;1.10;;;22.70;98.00;;;;;;5100011;28;20785;-65
2021/07/15 12:15:32;;;;;;;1.20;1.00;;;22.50;98.00;;;;;;5094867;28;20451;-65
2021/07/15 12:18:11;;;;;;;1.20;1.10;;;22.20;98.00;;;;;;5089779;28;20463;-64
2021/07/15 12:20:45;;;;;;;1.20;1.10;;;22.00;98.00;;;;;;5104480;28;20515;-65
2021/07/15 12:23:14;;;;;;;1.20;1.10;;;22.00;98.00;;;;;;5108676;28;20458;-66
2021/07/15 12:25:48;;;;;;;1.30;1.10;;;22.00;98.00;;;;;;5115096;28;20953;-66
2021/07/15 12:28:28;;;;;;;1.20;1.10;;;22.20;98.00;;;;;;5114401;28;20450;-66
2021/07/15 12:31:06;;;;;;;1.20;1.10;;;22.40;98.00;;;;;;5114420;28;20507;-65
2021/07/15 12:33:50;;;;;;;1.20;1.10;;;22.50;98.00;;;;;;5113576;28;20462;-65
2021/07/15 12:36:20;;;;;;;1.90;1.30;;;22.70;98.00;;;;;;5114859;28;20451;-65
2021/07/15 12:38:53;;;;;;;1.20;1.00;;;22.60;98.00;;;;;;5114808;28;20480;-65
2021/07/15 12:41:33;;;;;;;1.20;1.10;;;22.40;98.00;;;;;;5114974;28;20448;-66
2021/07/15 12:44:04;;;;;;;1.20;1.10;;;22.20;98.00;;;;;;5114485;28;20461;-66
2021/07/15 12:46:35;;;;;;;1.20;1.10;;;22.10;98.00;;;;;;5114749;28;20941;-65
2021/07/15 12:49:10;;;;;;;1.30;1.20;;;21.90;98.00;;;;;;5114099;28;20563;-65
2021/07/15 12:51:48;;;;;;;1.20;1.13;;;21.80;98.00;;;;;;5114285;28;20501;-66
2021/07/15 12:54:28;;;;;;;1.20;1.10;;;21.70;98.00;;;;;;5113070;28;20516;-66
2021/07/15 12:56:57;;;;;;;1.27;1.20;;;21.60;98.00;;;;;;5114469;28;20456;-66
2021/07/15 12:59:28;;;;;;;1.30;1.20;;;21.40;98.00;;;;;;5114214;28;21089;-65
2021/07/15 13:01:55;;;;;;;1.30;1.17;;;21.30;98.00;;;;;;5114249;28;20500;-66
2021/07/15 13:04:26;;;;;;;1.30;1.30;;;21.30;98.00;;;;;;5114440;28;20487;-66